»·PEaware :: N15JG KRAL-KSAN

N15JG :: KRAL-KSAN

FLIGHT INFORMATION

Flight Status: Arrived
Operator: Privately registered:
United States
More flights under this callsign
Pilot: Anonymous 11047 (11047)
Aircraft: CESSNA 172 SKYHAWK
(C172)
More flights by this aircraft type
Origin: KRAL Riverside Mun
United States
Destination: KSAN San Diego Intl-Lindbergh
United States
More flights between these airports :: More routes between these airports
Route: VPLDP OCN VPSRT
File this flight plan on PilotEdge
Remarks: Alphabet Challenge
Altitude:
(Current/Filed)
6,500ft
Speed:
(Current/Filed)
110kts
Departed: 30-Jan-17 03:00 PM
Arrived: 30-Jan-17 03:48 PM
Distance/Time
Traveled:
74nm/0:48
Distance/Time
To Go:
Arrived

Flight Plot

Page will automatically refresh every two minutes.

Flight plan parsing failed; only flown route is shown


Map Options




Map Legend


Flown Route
Filed Route
Departure Airport
Arrival Airport
Navaid (VOR, NDB)
Fix

Horizontal Profiles

Position Reports

Time Latitude Longitude Heading Altitude Ground
Speed
30-Jan-17 14:41 33.950847 -117.447169 10 765ft 0kts
30-Jan-17 14:42 33.950847 -117.447169 10 765ft 0kts
30-Jan-17 14:43 33.950847 -117.447169 10 765ft 0kts
30-Jan-17 14:44 33.950847 -117.447169 10 765ft 0kts
30-Jan-17 14:45 33.950847 -117.447169 10 765ft 0kts
30-Jan-17 14:46 33.950847 -117.447169 10 765ft 0kts
30-Jan-17 14:47 33.950847 -117.447169 10 765ft 0kts
30-Jan-17 14:48 33.950847 -117.447169 10 765ft 0kts
30-Jan-17 14:49 33.950847 -117.447169 10 765ft 0kts
30-Jan-17 14:50 33.950847 -117.447169 9 765ft 0kts
30-Jan-17 14:51 33.950847 -117.447169 9 765ft 0kts
30-Jan-17 14:52 33.950847 -117.447169 9 765ft 0kts
30-Jan-17 14:53 33.950847 -117.447169 9 765ft 0kts
30-Jan-17 14:54 33.951188 -117.447127 3 765ft 2kts
30-Jan-17 14:55 33.951575 -117.443846 103 781ft 16kts
30-Jan-17 14:56 33.950522 -117.438391 103 805ft 20kts
30-Jan-17 14:57 33.949931 -117.434986 46 811ft 0kts
30-Jan-17 14:58 33.949931 -117.434986 46 811ft 0kts
30-Jan-17 14:59 33.950403 -117.434804 356 812ft 11kts
30-Jan-17 15:00 33.954536 -117.453897 284 1040ft 89kts
30-Jan-17 15:01 33.948887 -117.477124 199 1743ft 91kts
30-Jan-17 15:02 33.924849 -117.478747 182 2407ft 88kts
30-Jan-17 15:03 33.901255 -117.478471 178 3030ft 88kts
30-Jan-17 15:04 33.878560 -117.488485 208 3620ft 91kts
30-Jan-17 15:05 33.857356 -117.503186 212 4276ft 85kts
30-Jan-17 15:06 33.835155 -117.519090 213 4761ft 96kts
30-Jan-17 15:07 33.811575 -117.531411 207 5349ft 92kts
30-Jan-17 15:08 33.787670 -117.541721 206 5838ft 92kts
30-Jan-17 15:09 33.762151 -117.552544 199 6353ft 100kts
30-Jan-17 15:10 33.734339 -117.561302 201 6635ft 111kts
30-Jan-17 15:11 33.704417 -117.575397 205 6503ft 113kts
30-Jan-17 15:12 33.676321 -117.589748 206 6385ft 109kts
30-Jan-17 15:13 33.647663 -117.599818 201 6488ft 108kts
30-Jan-17 15:14 33.618729 -117.609577 208 6530ft 110kts
30-Jan-17 15:15 33.589734 -117.623015 207 6519ft 114kts
30-Jan-17 15:16 33.559462 -117.635733 204 6487ft 115kts
30-Jan-17 15:17 33.528590 -117.646859 203 6446ft 119kts
30-Jan-17 15:18 33.498977 -117.659676 209 6415ft 116kts
30-Jan-17 15:19 33.470267 -117.675688 214 6462ft 112kts
30-Jan-17 15:20 33.438942 -117.668674 136 6336ft 131kts
30-Jan-17 15:21 33.412756 -117.635791 136 6038ft 134kts
30-Jan-17 15:22 33.386271 -117.604538 136 5526ft 134kts
30-Jan-17 15:23 33.361443 -117.571493 128 5040ft 132kts
30-Jan-17 15:24 33.337564 -117.538374 135 4677ft 129kts
30-Jan-17 15:25 33.315176 -117.507058 128 4712ft 113kts
30-Jan-17 15:26 33.293873 -117.478384 136 4941ft 119kts
30-Jan-17 15:27 33.265564 -117.455057 150 5020ft 130kts
30-Jan-17 15:28 33.234478 -117.433135 151 4916ft 128kts
30-Jan-17 15:29 33.204522 -117.409564 147 4750ft 130kts
30-Jan-17 15:30 33.175406 -117.386317 149 4788ft 123kts
30-Jan-17 15:31 33.147782 -117.366205 154 5069ft 112kts
30-Jan-17 15:32 33.121439 -117.348416 156 5311ft 112kts
30-Jan-17 15:33 33.093740 -117.330627 150 5358ft 124kts
30-Jan-17 15:34 33.062993 -117.313297 164 5356ft 122kts
30-Jan-17 15:35 33.035818 -117.302724 172 5226ft 129kts
30-Jan-17 15:36 33.003331 -117.296008 178 4835ft 114kts
30-Jan-17 15:37 32.972000 -117.292042 174 4419ft 113kts
30-Jan-17 15:38 32.940986 -117.283758 171 3929ft 117kts
30-Jan-17 15:39 32.903924 -117.272989 169 3483ft 117kts
30-Jan-17 15:40 32.872325 -117.262218 168 3479ft 124kts
30-Jan-17 15:41 32.839006 -117.250712 164 3449ft 124kts
30-Jan-17 15:42 32.812428 -117.236147 149 2995ft 132kts
30-Jan-17 15:43 32.780918 -117.217717 159 2205ft 125kts
30-Jan-17 15:44 32.751676 -117.202778 145 1160ft 116kts
30-Jan-17 15:45 32.742773 -117.172670 95 1159ft 108kts
30-Jan-17 15:46 32.731199 -117.155373 210 828ft 87kts
30-Jan-17 15:47 32.730434 -117.176889 288 115ft 65kts
30-Jan-17 15:48 32.733279 -117.187807 301 17ft 13kts
30-Jan-17 15:49 32.733961 -117.188052 41 17ft 0kts
30-Jan-17 15:50 32.734838 -117.187715 202 17ft 0kts
30-Jan-17 15:51 32.734839 -117.187715 202 17ft 0kts

Navigation Log

Ident Type
Flight plan parsing failed, navigation log unavailable